createdAt,value
2018-09-27T00:00:05.327Z,98054.21
2018-09-27T00:02:39.612Z,98053.73
2018-09-27T00:05:11.875Z,98049.95
2018-09-27T00:07:43.183Z,98047.13
2018-09-27T00:10:12.188Z,98044.23
2018-09-27T00:12:41.528Z,98043.20
2018-09-27T00:15:10.920Z,98040.16
2018-09-27T00:17:41.211Z,98044.63
2018-09-27T00:20:19.348Z,98043.67
2018-09-27T00:22:48.630Z,98048.92
2018-09-27T00:25:19.456Z,98041.33
2018-09-27T00:27:48.716Z,98038.55
2018-09-27T00:30:18.177Z,98038.47
2018-09-27T00:32:47.105Z,98037.68
2018-09-27T00:35:16.164Z,98035.91
2018-09-27T00:37:44.911Z,98033.45
2018-09-27T00:40:14.862Z,98029.44
2018-09-27T00:42:44.309Z,98033.53
2018-09-27T00:45:14.348Z,98032.38
2018-09-27T00:47:43.525Z,98029.56
2018-09-27T00:50:13.014Z,98030.31
2018-09-27T00:52:43.972Z,98037.33
2018-09-27T00:55:13.154Z,98035.15
2018-09-27T00:57:43.200Z,98031.25
2018-09-27T01:00:12.556Z,98037.38
2018-09-27T01:02:41.381Z,98031.26
2018-09-27T01:05:12.488Z,98034.50
2018-09-27T01:07:42.596Z,98034.13
2018-09-27T01:10:12.587Z,98038.40
2018-09-27T01:12:42.775Z,98033.81
2018-09-27T01:15:12.922Z,98032.13
2018-09-27T01:17:42.308Z,98032.05
2018-09-27T01:20:12.409Z,98071.62
2018-09-27T01:22:44.295Z,98033.26
2018-09-27T01:25:13.376Z,98029.86
2018-09-27T01:27:42.404Z,98033.12
2018-09-27T01:30:11.716Z,98025.94
2018-09-27T01:32:41.254Z,98019.05
2018-09-27T01:35:10.680Z,98012.80
2018-09-27T01:37:39.133Z,98013.84
2018-09-27T01:40:07.698Z,98011.64
2018-09-27T01:42:36.868Z,98004.42
2018-09-27T01:45:05.905Z,98005.83
2018-09-27T01:47:34.339Z,98003.11
2018-09-27T01:50:03.930Z,98003.02
2018-09-27T01:52:33.628Z,98002.07
2018-09-27T01:55:03.799Z,98011.87
2018-09-27T01:57:32.938Z,98011.34
2018-09-27T02:00:02.659Z,98005.41
2018-09-27T02:02:32.937Z,98008.49
2018-09-27T02:05:02.824Z,98002.03
2018-09-27T02:07:32.833Z,97994.16
2018-09-27T02:10:02.259Z,97997.80
2018-09-27T02:12:36.163Z,97989.23
2018-09-27T02:15:06.677Z,97985.60
2018-09-27T02:17:36.555Z,97984.12
2018-09-27T02:20:05.216Z,97985.41
2018-09-27T02:22:34.632Z,97896.15
2018-09-27T02:25:03.919Z,97981.93
2018-09-27T02:27:33.110Z,97976.80
2018-09-27T02:30:02.540Z,97977.70
2018-09-27T02:32:31.707Z,97977.67
2018-09-27T02:35:01.040Z,97978.95
2018-09-27T02:37:30.823Z,97971.73
2018-09-27T02:40:00.355Z,97971.42
2018-09-27T02:42:30.282Z,97967.11
2018-09-27T02:45:00.419Z,97966.28
2018-09-27T02:47:29.946Z,97963.95
2018-09-27T02:49:59.948Z,97959.59
2018-09-27T02:52:29.520Z,97957.80
2018-09-27T02:54:58.559Z,97953.41
2018-09-27T02:57:27.660Z,97949.45
2018-09-27T02:59:56.353Z,97950.36
2018-09-27T03:02:26.707Z,97945.73
2018-09-27T03:04:55.488Z,97947.20
2018-09-27T03:07:24.915Z,97806.44
2018-09-27T03:09:53.944Z,97932.55
2018-09-27T03:12:26.144Z,97932.20
2018-09-27T03:14:56.756Z,97971.05
2018-09-27T03:17:26.547Z,97932.67
2018-09-27T03:19:55.705Z,97929.17
2018-09-27T03:22:27.107Z,97926.45
2018-09-27T03:24:56.688Z,97929.97
2018-09-27T03:27:26.820Z,97930.45
2018-09-27T03:29:55.368Z,97922.92
2018-09-27T03:32:24.466Z,97922.66
2018-09-27T03:34:54.640Z,97929.77
2018-09-27T03:37:25.034Z,97924.55
2018-09-27T03:40:02.380Z,97927.83
2018-09-27T03:42:31.241Z,97921.69
2018-09-27T03:45:00.455Z,97921.55
2018-09-27T03:47:29.296Z,97919.14
2018-09-27T03:49:58.951Z,97913.53
2018-09-27T03:52:28.434Z,97912.64
2018-09-27T03:54:58.041Z,97911.77
2018-09-27T03:57:27.458Z,97910.47
2018-09-27T03:59:57.544Z,97912.87
2018-09-27T04:02:27.166Z,97913.97
2018-09-27T04:04:56.243Z,97904.91
2018-09-27T04:07:24.950Z,97906.98
2018-09-27T04:09:53.768Z,97915.38
2018-09-27T04:12:23.859Z,97901.29
2018-09-27T04:14:53.417Z,97897.65
2018-09-27T04:17:22.120Z,97898.63
2018-09-27T04:19:51.470Z,97899.38
2018-09-27T04:22:21.007Z,97892.20
2018-09-27T04:24:50.198Z,97884.11
2018-09-27T04:27:21.227Z,97878.66
2018-09-27T04:29:53.980Z,97883.66
2018-09-27T04:32:22.792Z,97884.75
2018-09-27T04:34:51.442Z,97880.09
2018-09-27T04:37:20.980Z,97884.95
2018-09-27T04:39:49.610Z,97885.95
2018-09-27T04:42:21.056Z,97882.95
2018-09-27T04:44:50.660Z,97886.66
2018-09-27T04:47:21.263Z,97889.09
2018-09-27T04:49:51.956Z,97886.79
2018-09-27T04:52:22.456Z,97886.89
2018-09-27T04:54:51.953Z,97893.14
2018-09-27T04:57:22.446Z,97889.22
2018-09-27T04:59:51.173Z,97886.31
2018-09-27T05:02:21.239Z,97887.20
2018-09-27T05:04:51.171Z,97885.83
2018-09-27T05:07:20.144Z,97879.86
2018-09-27T05:09:49.417Z,97851.59
2018-09-27T05:12:18.515Z,97882.37
2018-09-27T05:14:47.567Z,97891.44
2018-09-27T05:17:17.021Z,97884.47
2018-09-27T05:19:45.921Z,97881.98
2018-09-27T05:22:15.490Z,97890.65
2018-09-27T05:24:44.761Z,97889.86
2018-09-27T05:27:14.272Z,97889.59
2018-09-27T05:29:44.947Z,97885.40
2018-09-27T05:32:15.327Z,97881.02
2018-09-27T05:34:43.995Z,97876.48
2018-09-27T05:37:12.471Z,97875.52
2018-09-27T05:39:41.336Z,97876.52
2018-09-27T05:42:12.061Z,97876.77
2018-09-27T05:44:41.312Z,97880.55
2018-09-27T05:47:10.740Z,97882.64
2018-09-27T05:49:39.366Z,97876.34
2018-09-27T05:52:09.492Z,97866.42
2018-09-27T05:54:38.512Z,97871.09
2018-09-27T05:57:08.548Z,97869.30
2018-09-27T05:59:37.073Z,97866.12
2018-09-27T06:02:07.007Z,97712.85
2018-09-27T06:04:35.816Z,97838.35
2018-09-27T06:07:05.195Z,97875.95
2018-09-27T06:09:35.360Z,97871.19
2018-09-27T06:12:05.250Z,97871.16
2018-09-27T06:14:35.012Z,97871.78
2018-09-27T06:17:05.952Z,97867.48
2018-09-27T06:19:35.162Z,97867.94
2018-09-27T06:22:04.196Z,97865.81
2018-09-27T06:24:33.659Z,97864.14
2018-09-27T06:27:03.358Z,97870.25
2018-09-27T06:29:33.635Z,97867.45
2018-09-27T06:32:02.395Z,97867.83
2018-09-27T06:34:32.564Z,97862.38
2018-09-27T06:37:02.123Z,97866.34
2018-09-27T06:39:30.660Z,97865.81
2018-09-27T06:42:01.459Z,97870.28
2018-09-27T06:44:32.128Z,97867.25
2018-09-27T06:47:03.195Z,97874.12
2018-09-27T06:49:33.596Z,97870.67
2018-09-27T06:52:03.983Z,97874.11
2018-09-27T06:54:33.796Z,97876.64
2018-09-27T06:57:05.016Z,97877.53
2018-09-27T06:59:34.368Z,97876.94
2018-09-27T07:02:04.509Z,97872.27
2018-09-27T07:04:34.203Z,97872.67
2018-09-27T07:07:04.002Z,97788.66
2018-09-27T07:09:34.137Z,97877.30
2018-09-27T07:12:02.701Z,97877.27
2018-09-27T07:14:31.439Z,97881.59
2018-09-27T07:17:00.190Z,97882.31
2018-09-27T07:22:13.379Z,97878.79
2018-09-27T07:24:42.974Z,97881.80
2018-09-27T07:27:12.626Z,97878.29
2018-09-27T07:29:42.168Z,97873.59
2018-09-27T07:32:10.649Z,97880.55
2018-09-27T07:34:39.944Z,97876.20
2018-09-27T07:37:08.742Z,97872.52
2018-09-27T07:39:38.428Z,97872.64
2018-09-27T07:42:08.838Z,97875.45
2018-09-27T07:44:39.670Z,97867.78
2018-09-27T07:47:09.070Z,97862.50
2018-09-27T07:49:37.668Z,97861.45
2018-09-27T07:52:07.510Z,97860.02
2018-09-27T07:54:37.280Z,97861.82
2018-09-27T07:57:07.277Z,97857.84
2018-09-27T07:59:37.334Z,97866.13
2018-09-27T08:02:08.448Z,97859.28
2018-09-27T08:04:39.196Z,97860.33
2018-09-27T08:07:08.601Z,97860.70
2018-09-27T08:09:41.281Z,97861.22
2018-09-27T08:12:14.645Z,97861.22
2018-09-27T08:14:44.289Z,97859.13
2018-09-27T08:17:14.395Z,97863.50
2018-09-27T08:19:44.604Z,97862.31
2018-09-27T08:22:13.091Z,96320.31
2018-09-27T08:24:42.181Z,97857.09
2018-09-27T08:27:12.106Z,97861.45
2018-09-27T08:29:42.555Z,97859.80
2018-09-27T08:32:15.809Z,97860.34
2018-09-27T08:34:45.893Z,97884.53
2018-09-27T08:37:16.028Z,97891.28
2018-09-27T08:39:44.513Z,97852.72
2018-09-27T08:42:33.437Z,97846.45
2018-09-27T08:45:03.998Z,97851.56
2018-09-27T08:47:34.704Z,97846.55
2018-09-27T08:50:04.550Z,97849.09
2018-09-27T08:52:34.143Z,97852.27
2018-09-27T08:55:03.264Z,97848.39
2018-09-27T08:57:33.739Z,97871.42
2018-09-27T09:00:02.416Z,97840.14
2018-09-27T09:02:32.366Z,97845.48
2018-09-27T09:05:01.673Z,97838.47
2018-09-27T09:07:30.500Z,97836.37
2018-09-27T09:09:59.268Z,97835.77
2018-09-27T09:12:29.053Z,97831.81
2018-09-27T09:14:59.134Z,97823.17
2018-09-27T09:17:30.280Z,97824.73
2018-09-27T09:19:59.491Z,97822.41
2018-09-27T09:22:33.080Z,97816.77
2018-09-27T09:25:02.393Z,97812.75
2018-09-27T09:27:33.782Z,97814.80
2018-09-27T09:30:03.523Z,97807.31
2018-09-27T09:32:34.555Z,97802.53
2018-09-27T09:35:05.662Z,97796.12
2018-09-27T09:37:36.929Z,97802.19
2018-09-27T09:40:06.925Z,97800.70
2018-09-27T09:42:37.064Z,97801.57
2018-09-27T09:45:06.213Z,97508.25
2018-09-27T09:47:34.758Z,97423.75
2018-09-27T09:50:06.061Z,97793.84
2018-09-27T09:52:35.710Z,97787.73
2018-09-27T09:55:05.788Z,97408.48
2018-09-27T09:57:39.194Z,97788.08
2018-09-27T10:00:08.832Z,97783.73
2018-09-27T10:02:41.287Z,97779.75
2018-09-27T10:05:11.649Z,97807.45
2018-09-27T10:07:41.016Z,97767.91
2018-09-27T10:10:11.692Z,97766.47
2018-09-27T10:12:41.764Z,97768.95
2018-09-27T10:15:10.860Z,97763.41
2018-09-27T10:17:40.624Z,97759.05
2018-09-27T10:20:09.761Z,97754.81
2018-09-27T10:22:38.341Z,97754.17
2018-09-27T10:25:08.786Z,97752.14
2018-09-27T10:27:48.424Z,97746.72
2018-09-27T10:30:51.048Z,97749.27
2018-09-27T10:33:22.108Z,97751.48
2018-09-27T10:35:51.811Z,97740.96
2018-09-27T10:38:23.443Z,97739.91
2018-09-27T10:40:52.235Z,97737.92
2018-09-27T10:43:22.895Z,97673.10
2018-09-27T10:45:52.539Z,97736.05
2018-09-27T10:48:21.941Z,97729.09
2018-09-27T10:50:50.948Z,97728.52
2018-09-27T10:53:21.144Z,97718.75
2018-09-27T10:55:53.128Z,97716.17
2018-09-27T10:58:22.496Z,97710.17
2018-09-27T11:00:51.388Z,97710.45
2018-09-27T11:03:20.499Z,97709.41
2018-09-27T11:05:50.881Z,97710.00
2018-09-27T11:08:24.519Z,97706.61
2018-09-27T11:10:53.557Z,97702.27
2018-09-27T11:13:22.191Z,97699.59
2018-09-27T11:15:51.363Z,97697.70
2018-09-27T11:18:20.818Z,97699.50
2018-09-27T11:20:49.340Z,97689.38
2018-09-27T11:23:18.517Z,97688.88
2018-09-27T11:25:52.119Z,97685.13
2018-09-27T11:28:23.659Z,97679.16
2018-09-27T11:30:57.999Z,97675.90
2018-09-27T11:33:27.251Z,97671.67
2018-09-27T11:35:56.567Z,97669.73
2018-09-27T11:38:29.468Z,97660.09
2018-09-27T11:40:59.426Z,97661.63
2018-09-27T11:43:29.481Z,97657.06
2018-09-27T11:46:02.150Z,97652.44
2018-09-27T11:48:35.622Z,97646.48
2018-09-27T11:51:05.490Z,97649.12
2018-09-27T11:53:34.017Z,97647.42
2018-09-27T11:56:03.400Z,97632.37
2018-09-27T11:58:35.242Z,97636.94
2018-09-27T12:01:05.992Z,97632.41
2018-09-27T12:03:35.024Z,97624.53
2018-09-27T12:06:04.410Z,97620.95
2018-09-27T12:08:34.121Z,97612.21
2018-09-27T12:11:04.658Z,97615.61
2018-09-27T12:13:33.823Z,97607.77
2018-09-27T12:16:04.180Z,97605.55
2018-09-27T12:18:33.192Z,97607.00
2018-09-27T12:21:03.842Z,97602.52
2018-09-27T12:23:34.271Z,97603.08
2018-09-27T12:26:03.342Z,97594.76
2018-09-27T12:28:32.156Z,97592.00
2018-09-27T12:31:01.062Z,97579.23
2018-09-27T12:33:31.615Z,97576.61
2018-09-27T12:36:02.016Z,97578.67
2018-09-27T12:38:32.894Z,97572.15
2018-09-27T12:41:01.404Z,97563.14
2018-09-27T12:43:30.037Z,97565.48
2018-09-27T12:45:59.005Z,97703.08
2018-09-27T12:48:28.707Z,97555.99
2018-09-27T12:50:58.013Z,97557.38
2018-09-27T12:53:27.733Z,97548.61
2018-09-27T12:55:56.837Z,97548.41
2018-09-27T12:58:26.231Z,97540.11
2018-09-27T13:00:56.873Z,97535.85
2018-09-27T13:03:26.574Z,97530.32
2018-09-27T13:05:56.937Z,97526.13
2018-09-27T13:08:26.056Z,97521.47
2018-09-27T13:10:58.469Z,97521.98
2018-09-27T13:13:30.206Z,97518.41
2018-09-27T13:16:00.206Z,97514.30
2018-09-27T13:18:30.693Z,97513.12
2018-09-27T13:20:59.585Z,97510.28
2018-09-27T13:23:29.184Z,97507.83
2018-09-27T13:25:58.523Z,97503.33
2018-09-27T13:28:28.817Z,97503.38
2018-09-27T13:30:57.626Z,97491.65
2018-09-27T13:33:27.680Z,97484.20
2018-09-27T13:35:57.423Z,97481.59
2018-09-27T13:38:28.448Z,96034.42
2018-09-27T13:40:57.419Z,97482.98
2018-09-27T13:43:26.244Z,97483.33
2018-09-27T13:45:55.912Z,97480.80
2018-09-27T13:48:26.169Z,97477.24
2018-09-27T13:50:57.170Z,97473.83
2018-09-27T13:53:26.216Z,97467.25
2018-09-27T13:55:56.160Z,97467.96
2018-09-27T13:58:25.027Z,97461.42
2018-09-27T14:00:55.446Z,97460.33
2018-09-27T14:03:26.475Z,97456.94
2018-09-27T14:05:56.372Z,97456.84
2018-09-27T14:08:25.963Z,97456.86
2018-09-27T14:10:55.394Z,97451.98
2018-09-27T14:13:26.424Z,97447.84
2018-09-27T14:15:56.951Z,97442.02
2018-09-27T14:18:25.716Z,97443.09
2018-09-27T14:20:55.085Z,97440.67
2018-09-27T14:23:24.272Z,97439.21
2018-09-27T14:25:54.320Z,97435.86
2018-09-27T14:28:25.346Z,97431.84
2018-09-27T14:30:55.448Z,97425.43
2018-09-27T14:33:26.079Z,97428.25
2018-09-27T14:35:56.099Z,97422.28
2018-09-27T14:38:26.067Z,97414.12
2018-09-27T14:40:55.864Z,97420.45
2018-09-27T14:43:26.271Z,97408.14
2018-09-27T14:45:55.810Z,97411.44
2018-09-27T14:48:24.500Z,97407.08
2018-09-27T14:50:54.943Z,97406.42
2018-09-27T14:53:25.137Z,97405.08
2018-09-27T14:55:53.936Z,97405.50
2018-09-27T14:58:24.431Z,97401.47
2018-09-27T15:00:55.075Z,97446.27
2018-09-27T15:03:24.104Z,97395.94
2018-09-27T15:05:53.276Z,97398.16
2018-09-27T15:08:24.317Z,97399.28
2018-09-27T15:10:53.890Z,97390.50
2018-09-27T15:13:25.083Z,97383.44
2018-09-27T15:15:54.157Z,97381.38
2018-09-27T15:18:22.920Z,97377.34
2018-09-27T15:20:53.209Z,97377.47
2018-09-27T15:23:23.131Z,97371.24
2018-09-27T15:25:51.713Z,97365.46
2018-09-27T15:28:20.759Z,97358.38
2018-09-27T15:30:51.517Z,97358.09
2018-09-27T15:33:22.008Z,97360.17
2018-09-27T15:35:51.455Z,97351.66
2018-09-27T15:38:23.524Z,97357.02
2018-09-27T15:40:53.643Z,97351.63
2018-09-27T15:43:22.816Z,97351.26
2018-09-27T15:45:53.132Z,97347.66
2018-09-27T15:48:22.204Z,97341.56
2018-09-27T15:50:51.902Z,97341.66
2018-09-27T15:53:21.335Z,97340.87
2018-09-27T15:55:50.636Z,97335.96
2018-09-27T15:58:21.255Z,97328.66
2018-09-27T16:00:51.179Z,97325.30
2018-09-27T16:03:20.602Z,97320.94
2018-09-27T16:05:49.327Z,97316.34
2018-09-27T16:08:19.771Z,97306.62
2018-09-27T16:10:49.384Z,97308.94
2018-09-27T16:13:17.916Z,97307.11
2018-09-27T16:15:48.364Z,97303.05
2018-09-27T16:18:18.124Z,97300.52
2018-09-27T16:20:47.998Z,97306.71
2018-09-27T16:23:16.858Z,97308.25
2018-09-27T16:25:46.468Z,97299.97
2018-09-27T16:28:15.860Z,97292.55
2018-09-27T16:30:44.844Z,97299.14
2018-09-27T16:33:14.367Z,97303.20
2018-09-27T16:35:44.943Z,97302.72
2018-09-27T16:38:16.926Z,97300.11
2018-09-27T16:40:45.939Z,97296.56
2018-09-27T16:43:15.974Z,97301.30
2018-09-27T16:45:45.704Z,97298.88
2018-09-27T16:48:15.765Z,97292.20
2018-09-27T16:50:45.468Z,97290.75
2018-09-27T16:53:16.359Z,97288.94
2018-09-27T16:55:45.918Z,97299.78
2018-09-27T16:58:17.920Z,97288.77
2018-09-27T17:00:46.973Z,97289.16
2018-09-27T17:03:17.009Z,97291.36
2018-09-27T17:05:45.797Z,97294.41
2018-09-27T17:08:14.857Z,97289.32
2018-09-27T17:10:44.186Z,97282.89
2018-09-27T17:13:12.930Z,97287.80
2018-09-27T17:15:43.291Z,97286.02
2018-09-27T17:18:12.401Z,97289.81
2018-09-27T17:20:41.557Z,97285.34
2018-09-27T17:23:14.064Z,97288.71
2018-09-27T17:25:43.205Z,97279.87
2018-09-27T17:28:12.699Z,97287.13
2018-09-27T17:30:42.246Z,97282.34
2018-09-27T17:33:11.253Z,97275.94
2018-09-27T17:35:41.492Z,97272.80
2018-09-27T17:38:13.083Z,97270.23
2018-09-27T17:40:41.692Z,97274.41
2018-09-27T17:43:10.984Z,97276.84
2018-09-27T17:45:41.522Z,97281.78
2018-09-27T17:48:11.593Z,97281.78
2018-09-27T17:50:40.825Z,97278.78
2018-09-27T17:53:10.807Z,97284.73
2018-09-27T17:55:40.281Z,97283.66
2018-09-27T17:58:10.738Z,97293.41
2018-09-27T18:00:39.497Z,97288.18
2018-09-27T18:03:08.063Z,97289.48
2018-09-27T18:05:37.090Z,97291.76
2018-09-27T18:08:07.032Z,97287.57
2018-09-27T18:10:36.459Z,97294.56
2018-09-27T18:13:06.786Z,97283.51
2018-09-27T18:15:36.297Z,97287.65
2018-09-27T18:18:06.862Z,97285.03
2018-09-27T18:20:35.979Z,97290.41
2018-09-27T18:23:06.047Z,97278.67
2018-09-27T18:25:35.536Z,97282.22
2018-09-27T18:28:06.250Z,97285.22
2018-09-27T18:30:34.831Z,97281.91
2018-09-27T18:33:04.295Z,97286.82
2018-09-27T18:35:34.888Z,97284.61
2018-09-27T18:38:04.175Z,97284.64
2018-09-27T18:40:35.013Z,97285.96
2018-09-27T18:43:05.177Z,97283.28
2018-09-27T18:45:35.830Z,97283.39
2018-09-27T18:48:05.529Z,97280.72
2018-09-27T18:50:34.301Z,97276.03
2018-09-27T18:53:06.037Z,97282.40
2018-09-27T18:55:34.872Z,97281.28
2018-09-27T18:58:07.803Z,97281.80
2018-09-27T19:00:37.609Z,97278.03
2018-09-27T19:03:06.939Z,97271.75
2018-09-27T19:05:35.783Z,97267.67
2018-09-27T19:08:05.778Z,97268.38
2018-09-27T19:10:36.088Z,97264.59
2018-09-27T19:13:04.888Z,97270.80
2018-09-27T19:15:35.670Z,97263.23
2018-09-27T19:18:05.401Z,97300.40
2018-09-27T19:20:37.764Z,97257.48
2018-09-27T19:23:08.164Z,97261.23
2018-09-27T19:25:38.472Z,97262.00
2018-09-27T19:28:07.244Z,97258.54
2018-09-27T19:30:37.480Z,97257.13
2018-09-27T19:33:06.613Z,97261.17
2018-09-27T19:35:35.715Z,97250.23
2018-09-27T19:38:04.957Z,97254.55
2018-09-27T19:40:34.052Z,97251.88
2018-09-27T19:43:03.921Z,97250.44
2018-09-27T19:45:34.511Z,97251.54
2018-09-27T19:48:05.068Z,97254.16
2018-09-27T19:50:35.519Z,97247.81
2018-09-27T19:59:53.757Z,97241.50
2018-09-27T20:02:23.703Z,97245.23
2018-09-27T20:04:54.580Z,97242.42
2018-09-27T20:07:25.152Z,97249.49
2018-09-27T20:09:54.668Z,97246.38
2018-09-27T20:12:24.567Z,97242.16
2018-09-27T20:14:54.358Z,97247.85
2018-09-27T20:17:24.648Z,97246.22
2018-09-27T20:19:53.767Z,97244.19
2018-09-27T20:22:23.646Z,97237.53
2018-09-27T20:24:53.422Z,97241.54
2018-09-27T20:27:23.191Z,97251.25
2018-09-27T20:29:52.072Z,97237.39
2018-09-27T20:32:21.145Z,97240.63
2018-09-27T20:34:51.663Z,97239.30
2018-09-27T20:37:22.862Z,97275.11
2018-09-27T20:39:52.497Z,97233.96
2018-09-27T20:42:22.744Z,97242.23
2018-09-27T20:44:52.592Z,97243.80
2018-09-27T20:47:22.920Z,97240.64
2018-09-27T20:49:51.985Z,97240.91
2018-09-27T20:52:23.129Z,97241.76
2018-09-27T20:54:52.430Z,97231.61
2018-09-27T20:57:23.232Z,97238.28
2018-09-27T20:59:53.979Z,97238.58
2018-09-27T21:02:23.906Z,97232.73
2018-09-27T21:04:52.896Z,97238.28
2018-09-27T21:07:22.296Z,97236.45
2018-09-27T21:09:53.511Z,97236.47
2018-09-27T21:12:24.842Z,97234.63
2018-09-27T21:14:55.295Z,97232.69
2018-09-27T21:17:24.761Z,97225.03
2018-09-27T21:19:54.194Z,97228.70
2018-09-27T21:22:23.261Z,97223.14
2018-09-27T21:24:54.430Z,97223.33
2018-09-27T21:27:24.112Z,96242.47
2018-09-27T21:29:53.576Z,97226.30
2018-09-27T21:32:29.736Z,97222.55
2018-09-27T21:35:00.998Z,97220.92
2018-09-27T21:37:29.656Z,97218.02
2018-09-27T21:40:00.196Z,97217.77
2018-09-27T21:42:30.433Z,97215.59
2018-09-27T21:45:00.043Z,97216.67
2018-09-27T21:47:29.514Z,97211.27
2018-09-27T21:49:58.658Z,97212.63
2018-09-27T21:52:27.954Z,97213.98
2018-09-27T21:54:57.427Z,97213.41
2018-09-27T21:57:27.557Z,97210.23
2018-09-27T21:59:57.502Z,97201.70
2018-09-27T22:02:27.240Z,97209.13
2018-09-27T22:04:56.200Z,97203.77
2018-09-27T22:07:26.457Z,97197.91
2018-09-27T22:09:58.108Z,97199.98
2018-09-27T22:12:27.912Z,97200.58
2018-09-27T22:14:57.866Z,97204.03
2018-09-27T22:17:30.018Z,97197.08
2018-09-27T22:19:59.361Z,97198.41
2018-09-27T22:22:29.878Z,97193.64
2018-09-27T22:25:00.828Z,97189.11
2018-09-27T22:27:29.827Z,97189.26
2018-09-27T22:29:59.986Z,97191.36
2018-09-27T22:32:29.711Z,97186.67
2018-09-27T22:35:01.534Z,97185.08
2018-09-27T22:37:30.699Z,97180.51
2018-09-27T22:40:00.839Z,97172.16
2018-09-27T22:42:30.167Z,97174.59
2018-09-27T22:45:00.244Z,97171.53
2018-09-27T22:47:29.236Z,97167.64
2018-09-27T22:49:58.022Z,97171.82
2018-09-27T22:52:28.526Z,97164.89
2018-09-27T22:54:57.646Z,97173.58
2018-09-27T22:57:27.231Z,97170.50
2018-09-27T22:59:57.642Z,97170.95
2018-09-27T23:02:26.381Z,97167.05
2018-09-27T23:04:56.360Z,97163.80
2018-09-27T23:07:28.058Z,97167.11
2018-09-27T23:09:57.520Z,97171.97
2018-09-27T23:12:26.438Z,97164.63
2018-09-27T23:14:55.424Z,97000.35
2018-09-27T23:17:27.693Z,97167.16
2018-09-27T23:19:57.072Z,97172.28
2018-09-27T23:22:26.607Z,97161.09
2018-09-27T23:24:57.951Z,97166.23
2018-09-27T23:27:27.832Z,97162.55
2018-09-27T23:29:56.889Z,97165.53
2018-09-27T23:32:27.893Z,97157.35
2018-09-27T23:34:57.454Z,97161.80
2018-09-27T23:37:26.535Z,97155.45
2018-09-27T23:39:55.577Z,97155.98
2018-09-27T23:42:24.099Z,97153.35
2018-09-27T23:44:56.763Z,97152.20
2018-09-27T23:47:26.267Z,97147.68
2018-09-27T23:49:55.492Z,97147.55
2018-09-27T23:52:41.570Z,97149.58
2018-09-27T23:55:11.569Z,97145.01
2018-09-27T23:57:41.009Z,97145.61
